sensor_id;sensor_type;location;lat;lon;timestamp;pressure;altitude;pressure_sealevel;temperature;humidity
6204;BME280;3135;42.602;23.468;2023-06-10T00:00:15;92412.69;;;15.94;100.00
6204;BME280;3135;42.602;23.468;2023-06-10T00:02:41;92414.50;;;16.02;100.00
6204;BME280;3135;42.602;23.468;2023-06-10T00:05:08;92408.22;;;15.98;100.00
6204;BME280;3135;42.602;23.468;2023-06-10T00:07:34;92411.59;;;15.95;100.00
6204;BME280;3135;42.602;23.468;2023-06-10T00:10:06;92421.16;;;16.05;100.00
6204;BME280;3135;42.602;23.468;2023-06-10T00:12:32;92409.78;;;15.99;100.00
6204;BME280;3135;42.602;23.468;2023-06-10T00:15:03;92415.06;;;15.96;100.00
6204;BME280;3135;42.602;23.468;2023-06-10T00:17:29;92391.25;;;15.98;100.00
6204;BME280;3135;42.602;23.468;2023-06-10T00:19:55;92401.91;;;15.94;100.00
6204;BME280;3135;42.602;23.468;2023-06-10T00:22:20;92392.81;;;15.87;100.00
6204;BME280;3135;42.602;23.468;2023-06-10T00:24:47;92417.28;;;15.94;100.00
6204;BME280;3135;42.602;23.468;2023-06-10T00:27:12;92405.22;;;15.79;100.00
6204;BME280;3135;42.602;23.468;2023-06-10T00:29:38;92415.47;;;15.86;100.00
6204;BME280;3135;42.602;23.468;2023-06-10T00:32:04;92409.28;;;15.85;100.00
6204;BME280;3135;42.602;23.468;2023-06-10T00:34:30;92397.41;;;15.65;100.00
6204;BME280;3135;42.602;23.468;2023-06-10T00:36:57;92407.47;;;15.77;100.00
6204;BME280;3135;42.602;23.468;2023-06-10T00:39:23;92402.19;;;15.80;100.00
6204;BME280;3135;42.602;23.468;2023-06-10T00:41:48;60778.75;;;-145.89;100.00
6204;BME280;3135;42.602;23.468;2023-06-10T00:44:15;60778.75;;;-145.89;100.00
6204;BME280;3135;42.602;23.468;2023-06-10T00:46:40;60778.75;;;-145.89;100.00
6204;BME280;3135;42.602;23.468;2023-06-10T00:49:06;60778.75;;;-145.89;100.00
6204;BME280;3135;42.602;23.468;2023-06-10T00:51:31;60778.75;;;-145.89;100.00
6204;BME280;3135;42.602;23.468;2023-06-10T00:53:57;60778.75;;;-145.89;100.00
6204;BME280;3135;42.602;23.468;2023-06-10T00:56:23;60778.75;;;-145.89;100.00
6204;BME280;3135;42.602;23.468;2023-06-10T00:58:48;60778.75;;;-145.89;100.00
6204;BME280;3135;42.602;23.468;2023-06-10T01:01:14;60778.75;;;-145.89;100.00
6204;BME280;3135;42.602;23.468;2023-06-10T01:03:39;60778.75;;;-145.89;100.00
6204;BME280;3135;42.602;23.468;2023-06-10T01:11:52;60778.75;;;-145.89;100.00
6204;BME280;3135;42.602;23.468;2023-06-10T01:14:20;60778.75;;;-145.89;100.00
6204;BME280;3135;42.602;23.468;2023-06-10T01:16:46;60778.75;;;-145.89;100.00
6204;BME280;3135;42.602;23.468;2023-06-10T01:19:11;60778.75;;;-145.89;100.00
6204;BME280;3135;42.602;23.468;2023-06-10T01:21:38;60778.75;;;-145.89;100.00
6204;BME280;3135;42.602;23.468;2023-06-10T01:24:05;60778.75;;;-145.89;100.00
6204;BME280;3135;42.602;23.468;2023-06-10T01:26:34;60778.75;;;-145.89;100.00
6204;BME280;3135;42.602;23.468;2023-06-10T01:29:08;60778.75;;;-145.89;100.00
6204;BME280;3135;42.602;23.468;2023-06-10T01:31:46;60778.75;;;-145.89;100.00
6204;BME280;3135;42.602;23.468;2023-06-10T01:34:17;60778.75;;;-145.89;100.00
6204;BME280;3135;42.602;23.468;2023-06-10T01:36:46;60778.75;;;-145.89;100.00
6204;BME280;3135;42.602;23.468;2023-06-10T01:39:14;60778.75;;;-145.89;100.00
6204;BME280;3135;42.602;23.468;2023-06-10T01:41:41;60778.75;;;-145.89;100.00
6204;BME280;3135;42.602;23.468;2023-06-10T01:44:06;60778.75;;;-145.89;100.00
6204;BME280;3135;42.602;23.468;2023-06-10T01:46:32;60778.75;;;-145.89;100.00
6204;BME280;3135;42.602;23.468;2023-06-10T01:48:57;60778.75;;;-145.89;100.00
6204;BME280;3135;42.602;23.468;2023-06-10T01:51:23;60778.75;;;-145.89;100.00
6204;BME280;3135;42.602;23.468;2023-06-10T01:53:48;60778.75;;;-145.89;100.00
6204;BME280;3135;42.602;23.468;2023-06-10T01:56:14;60778.75;;;-145.89;100.00
6204;BME280;3135;42.602;23.468;2023-06-10T01:58:45;60778.75;;;-145.89;100.00
6204;BME280;3135;42.602;23.468;2023-06-10T02:01:10;60778.75;;;-145.89;100.00
6204;BME280;3135;42.602;23.468;2023-06-10T02:03:36;60778.75;;;-145.89;100.00
6204;BME280;3135;42.602;23.468;2023-06-10T02:06:01;60778.75;;;-145.89;100.00
6204;BME280;3135;42.602;23.468;2023-06-10T02:08:27;60778.75;;;-145.89;100.00
6204;BME280;3135;42.602;23.468;2023-06-10T02:10:55;60778.75;;;-145.89;100.00
6204;BME280;3135;42.602;23.468;2023-06-10T02:13:20;60778.75;;;-145.89;100.00
6204;BME280;3135;42.602;23.468;2023-06-10T02:15:46;60778.75;;;-145.89;100.00
6204;BME280;3135;42.602;23.468;2023-06-10T02:18:11;60778.75;;;-145.89;100.00
6204;BME280;3135;42.602;23.468;2023-06-10T02:20:37;60778.75;;;-145.89;100.00
6204;BME280;3135;42.602;23.468;2023-06-10T02:23:03;60778.75;;;-145.89;100.00
6204;BME280;3135;42.602;23.468;2023-06-10T02:25:28;60778.75;;;-145.89;100.00
6204;BME280;3135;42.602;23.468;2023-06-10T02:27:54;60778.75;;;-145.89;100.00
6204;BME280;3135;42.602;23.468;2023-06-10T02:30:19;60778.75;;;-145.89;100.00
6204;BME280;3135;42.602;23.468;2023-06-10T02:32:45;60778.75;;;-145.89;100.00
6204;BME280;3135;42.602;23.468;2023-06-10T02:35:14;60778.75;;;-145.89;100.00
6204;BME280;3135;42.602;23.468;2023-06-10T02:37:39;60778.75;;;-145.89;100.00
6204;BME280;3135;42.602;23.468;2023-06-10T02:40:05;60778.75;;;-145.89;100.00
6204;BME280;3135;42.602;23.468;2023-06-10T02:42:31;60778.75;;;-145.89;100.00
6204;BME280;3135;42.602;23.468;2023-06-10T02:44:56;60778.75;;;-145.89;100.00
6204;BME280;3135;42.602;23.468;2023-06-10T02:47:22;60778.75;;;-145.89;100.00
6204;BME280;3135;42.602;23.468;2023-06-10T02:49:47;60778.75;;;-145.89;100.00
6204;BME280;3135;42.602;23.468;2023-06-10T02:52:13;60778.75;;;-145.89;100.00
6204;BME280;3135;42.602;23.468;2023-06-10T02:54:38;60778.75;;;-145.89;100.00
6204;BME280;3135;42.602;23.468;2023-06-10T02:57:05;60778.75;;;-145.89;100.00
6204;BME280;3135;42.602;23.468;2023-06-10T02:59:31;60778.75;;;-145.89;100.00
6204;BME280;3135;42.602;23.468;2023-06-10T03:01:57;60778.75;;;-145.89;100.00
6204;BME280;3135;42.602;23.468;2023-06-10T03:04:22;60778.75;;;-145.89;100.00
6204;BME280;3135;42.602;23.468;2023-06-10T03:06:50;60778.75;;;-145.89;100.00
6204;BME280;3135;42.602;23.468;2023-06-10T03:09:16;60778.75;;;-145.89;100.00
6204;BME280;3135;42.602;23.468;2023-06-10T03:11:41;60778.75;;;-145.89;100.00
6204;BME280;3135;42.602;23.468;2023-06-10T03:14:06;60778.75;;;-145.89;100.00
6204;BME280;3135;42.602;23.468;2023-06-10T03:16:32;60778.75;;;-145.89;100.00
6204;BME280;3135;42.602;23.468;2023-06-10T03:18:57;60778.75;;;-145.89;100.00
6204;BME280;3135;42.602;23.468;2023-06-10T03:21:23;60778.75;;;-145.89;100.00
6204;BME280;3135;42.602;23.468;2023-06-10T03:23:48;60778.75;;;-145.89;100.00
6204;BME280;3135;42.602;23.468;2023-06-10T03:26:14;60778.75;;;-145.89;100.00
6204;BME280;3135;42.602;23.468;2023-06-10T03:28:40;60778.75;;;-145.89;100.00
6204;BME280;3135;42.602;23.468;2023-06-10T03:31:06;60778.75;;;-145.89;100.00
6204;BME280;3135;42.602;23.468;2023-06-10T03:33:32;60778.75;;;-145.89;100.00
6204;BME280;3135;42.602;23.468;2023-06-10T03:35:58;60778.75;;;-145.89;100.00
6204;BME280;3135;42.602;23.468;2023-06-10T03:38:23;60778.75;;;-145.89;100.00
6204;BME280;3135;42.602;23.468;2023-06-10T03:40:49;60778.75;;;-145.89;100.00
6204;BME280;3135;42.602;23.468;2023-06-10T03:43:14;60778.75;;;-145.89;100.00
6204;BME280;3135;42.602;23.468;2023-06-10T03:45:40;60778.75;;;-145.89;100.00
6204;BME280;3135;42.602;23.468;2023-06-10T03:48:06;60778.75;;;-145.89;100.00
6204;BME280;3135;42.602;23.468;2023-06-10T03:50:34;60778.75;;;-145.89;100.00
6204;BME280;3135;42.602;23.468;2023-06-10T03:52:59;60778.75;;;-145.89;100.00
6204;BME280;3135;42.602;23.468;2023-06-10T03:55:25;60778.75;;;-145.89;100.00
6204;BME280;3135;42.602;23.468;2023-06-10T03:57:51;60778.75;;;-145.89;100.00
6204;BME280;3135;42.602;23.468;2023-06-10T04:00:17;60778.75;;;-145.89;100.00
6204;BME280;3135;42.602;23.468;2023-06-10T04:02:43;60778.75;;;-145.89;100.00
6204;BME280;3135;42.602;23.468;2023-06-10T04:05:15;60778.75;;;-145.89;100.00
6204;BME280;3135;42.602;23.468;2023-06-10T04:07:42;60778.75;;;-145.89;100.00
6204;BME280;3135;42.602;23.468;2023-06-10T04:10:08;60778.75;;;-145.89;100.00
6204;BME280;3135;42.602;23.468;2023-06-10T04:12:34;60778.75;;;-145.89;100.00
6204;BME280;3135;42.602;23.468;2023-06-10T04:15:00;60778.75;;;-145.89;100.00
6204;BME280;3135;42.602;23.468;2023-06-10T04:17:25;60778.75;;;-145.89;100.00
6204;BME280;3135;42.602;23.468;2023-06-10T04:19:51;60778.75;;;-145.89;100.00
6204;BME280;3135;42.602;23.468;2023-06-10T04:22:18;60778.75;;;-145.89;100.00
6204;BME280;3135;42.602;23.468;2023-06-10T04:24:44;60778.75;;;-145.89;100.00
6204;BME280;3135;42.602;23.468;2023-06-10T04:27:09;60778.75;;;-145.89;100.00
6204;BME280;3135;42.602;23.468;2023-06-10T04:29:35;60778.75;;;-145.89;100.00
6204;BME280;3135;42.602;23.468;2023-06-10T04:32:01;60778.75;;;-145.89;100.00
6204;BME280;3135;42.602;23.468;2023-06-10T04:34:27;60778.75;;;-145.89;100.00
6204;BME280;3135;42.602;23.468;2023-06-10T04:36:53;60778.75;;;-145.89;100.00
6204;BME280;3135;42.602;23.468;2023-06-10T04:39:18;60778.75;;;-145.89;100.00
6204;BME280;3135;42.602;23.468;2023-06-10T04:41:45;60778.75;;;-145.89;100.00
6204;BME280;3135;42.602;23.468;2023-06-10T04:44:10;60778.75;;;-145.89;100.00
6204;BME280;3135;42.602;23.468;2023-06-10T04:46:36;60778.75;;;-145.89;100.00
6204;BME280;3135;42.602;23.468;2023-06-10T04:49:01;60778.75;;;-145.89;100.00
6204;BME280;3135;42.602;23.468;2023-06-10T04:51:27;60778.75;;;-145.89;100.00
6204;BME280;3135;42.602;23.468;2023-06-10T04:53:53;60778.75;;;-145.89;100.00
6204;BME280;3135;42.602;23.468;2023-06-10T04:56:19;60778.75;;;-145.89;100.00
6204;BME280;3135;42.602;23.468;2023-06-10T04:58:45;60778.75;;;-145.89;100.00
6204;BME280;3135;42.602;23.468;2023-06-10T05:01:10;60778.75;;;-145.89;100.00
6204;BME280;3135;42.602;23.468;2023-06-10T05:03:36;60778.75;;;-145.89;100.00
6204;BME280;3135;42.602;23.468;2023-06-10T05:06:01;60778.75;;;-145.89;100.00
6204;BME280;3135;42.602;23.468;2023-06-10T05:08:27;60778.75;;;-145.89;100.00
6204;BME280;3135;42.602;23.468;2023-06-10T05:10:52;60778.75;;;-145.89;100.00
6204;BME280;3135;42.602;23.468;2023-06-10T05:13:17;60778.75;;;-145.89;100.00
6204;BME280;3135;42.602;23.468;2023-06-10T05:15:43;60778.75;;;-145.89;100.00
6204;BME280;3135;42.602;23.468;2023-06-10T05:18:10;60778.75;;;-145.89;100.00
6204;BME280;3135;42.602;23.468;2023-06-10T05:20:37;60778.75;;;-145.89;100.00
6204;BME280;3135;42.602;23.468;2023-06-10T05:23:03;60778.75;;;-145.89;100.00
6204;BME280;3135;42.602;23.468;2023-06-10T05:25:30;60778.75;;;-145.89;100.00
6204;BME280;3135;42.602;23.468;2023-06-10T05:27:55;60778.75;;;-145.89;100.00
6204;BME280;3135;42.602;23.468;2023-06-10T05:30:21;60778.75;;;-145.89;100.00
6204;BME280;3135;42.602;23.468;2023-06-10T05:32:47;60778.75;;;-145.89;100.00
6204;BME280;3135;42.602;23.468;2023-06-10T05:35:13;60778.75;;;-145.89;100.00
6204;BME280;3135;42.602;23.468;2023-06-10T05:37:38;60778.75;;;-145.89;100.00
6204;BME280;3135;42.602;23.468;2023-06-10T05:40:04;60778.75;;;-145.89;100.00
6204;BME280;3135;42.602;23.468;2023-06-10T05:42:30;60778.75;;;-145.89;100.00
6204;BME280;3135;42.602;23.468;2023-06-10T05:44:55;60778.75;;;-145.89;100.00
6204;BME280;3135;42.602;23.468;2023-06-10T05:47:20;60778.75;;;-145.89;100.00
6204;BME280;3135;42.602;23.468;2023-06-10T05:49:46;60778.75;;;-145.89;100.00
6204;BME280;3135;42.602;23.468;2023-06-10T05:52:13;60778.75;;;-145.89;100.00
6204;BME280;3135;42.602;23.468;2023-06-10T05:54:38;60778.75;;;-145.89;100.00
6204;BME280;3135;42.602;23.468;2023-06-10T05:57:04;60778.75;;;-145.89;100.00
6204;BME280;3135;42.602;23.468;2023-06-10T05:59:31;60778.75;;;-145.89;100.00
6204;BME280;3135;42.602;23.468;2023-06-10T06:01:56;60778.75;;;-145.89;100.00
6204;BME280;3135;42.602;23.468;2023-06-10T06:04:22;60778.75;;;-145.89;100.00
6204;BME280;3135;42.602;23.468;2023-06-10T06:06:47;60778.75;;;-145.89;100.00
6204;BME280;3135;42.602;23.468;2023-06-10T06:09:13;60778.75;;;-145.89;100.00
6204;BME280;3135;42.602;23.468;2023-06-10T06:11:38;60778.75;;;-145.89;100.00
6204;BME280;3135;42.602;23.468;2023-06-10T06:14:03;60778.75;;;-145.89;100.00
6204;BME280;3135;42.602;23.468;2023-06-10T06:16:29;60778.75;;;-145.89;100.00
6204;BME280;3135;42.602;23.468;2023-06-10T06:18:54;60778.75;;;-145.89;100.00
6204;BME280;3135;42.602;23.468;2023-06-10T06:21:20;60778.75;;;-145.89;100.00
6204;BME280;3135;42.602;23.468;2023-06-10T06:23:45;60778.75;;;-145.89;100.00
6204;BME280;3135;42.602;23.468;2023-06-10T06:26:11;60778.75;;;-145.89;100.00
6204;BME280;3135;42.602;23.468;2023-06-10T06:28:36;60778.75;;;-145.89;100.00
6204;BME280;3135;42.602;23.468;2023-06-10T06:31:02;60778.75;;;-145.89;100.00
6204;BME280;3135;42.602;23.468;2023-06-10T06:33:27;60778.75;;;-145.89;100.00
6204;BME280;3135;42.602;23.468;2023-06-10T06:35:52;60778.75;;;-145.89;100.00
6204;BME280;3135;42.602;23.468;2023-06-10T06:38:18;60778.75;;;-145.89;100.00
6204;BME280;3135;42.602;23.468;2023-06-10T06:40:43;60778.75;;;-145.89;100.00
6204;BME280;3135;42.602;23.468;2023-06-10T06:43:09;60778.75;;;-145.89;100.00
6204;BME280;3135;42.602;23.468;2023-06-10T06:45:34;60778.75;;;-145.89;100.00
6204;BME280;3135;42.602;23.468;2023-06-10T06:48:00;60778.75;;;-145.89;100.00
6204;BME280;3135;42.602;23.468;2023-06-10T06:50:25;60778.75;;;-145.89;100.00
6204;BME280;3135;42.602;23.468;2023-06-10T06:52:51;60778.75;;;-145.89;100.00
6204;BME280;3135;42.602;23.468;2023-06-10T06:55:16;60778.75;;;-145.89;100.00
6204;BME280;3135;42.602;23.468;2023-06-10T06:57:41;60778.75;;;-145.89;100.00
6204;BME280;3135;42.602;23.468;2023-06-10T07:00:07;60778.75;;;-145.89;100.00
6204;BME280;3135;42.602;23.468;2023-06-10T07:02:34;60778.75;;;-145.89;100.00
6204;BME280;3135;42.602;23.468;2023-06-10T07:05:00;60778.75;;;-145.89;100.00
6204;BME280;3135;42.602;23.468;2023-06-10T07:07:26;60778.75;;;-145.89;100.00
6204;BME280;3135;42.602;23.468;2023-06-10T07:09:52;60778.75;;;-145.89;100.00
6204;BME280;3135;42.602;23.468;2023-06-10T07:12:17;60778.75;;;-145.89;100.00
6204;BME280;3135;42.602;23.468;2023-06-10T07:14:44;60778.75;;;-145.89;100.00
6204;BME280;3135;42.602;23.468;2023-06-10T07:17:09;60778.75;;;-145.89;100.00
6204;BME280;3135;42.602;23.468;2023-06-10T07:19:35;60778.75;;;-145.89;100.00
6204;BME280;3135;42.602;23.468;2023-06-10T07:22:00;60778.75;;;-145.89;100.00
6204;BME280;3135;42.602;23.468;2023-06-10T07:24:25;60778.75;;;-145.89;100.00
6204;BME280;3135;42.602;23.468;2023-06-10T07:26:51;60778.75;;;-145.89;100.00
6204;BME280;3135;42.602;23.468;2023-06-10T07:29:16;60778.75;;;-145.89;100.00
6204;BME280;3135;42.602;23.468;2023-06-10T07:31:42;60778.75;;;-145.89;100.00
6204;BME280;3135;42.602;23.468;2023-06-10T07:34:07;60778.75;;;-145.89;100.00
6204;BME280;3135;42.602;23.468;2023-06-10T07:36:33;60778.75;;;-145.89;100.00
6204;BME280;3135;42.602;23.468;2023-06-10T07:38:58;60778.75;;;-145.89;100.00
6204;BME280;3135;42.602;23.468;2023-06-10T07:41:24;60778.75;;;-145.89;100.00
6204;BME280;3135;42.602;23.468;2023-06-10T07:43:53;60778.75;;;-145.89;100.00
6204;BME280;3135;42.602;23.468;2023-06-10T07:46:22;60778.75;;;-145.89;100.00
6204;BME280;3135;42.602;23.468;2023-06-10T07:48:48;60778.75;;;-145.89;100.00
6204;BME280;3135;42.602;23.468;2023-06-10T07:51:15;60778.75;;;-145.89;100.00
6204;BME280;3135;42.602;23.468;2023-06-10T07:53:41;60778.75;;;-145.89;100.00
6204;BME280;3135;42.602;23.468;2023-06-10T07:56:06;60778.75;;;-145.89;100.00
6204;BME280;3135;42.602;23.468;2023-06-10T07:58:32;60778.75;;;-145.89;100.00
6204;BME280;3135;42.602;23.468;2023-06-10T08:00:57;60778.75;;;-145.89;100.00
6204;BME280;3135;42.602;23.468;2023-06-10T08:03:22;60778.75;;;-145.89;100.00
6204;BME280;3135;42.602;23.468;2023-06-10T08:05:48;60778.75;;;-145.89;100.00
6204;BME280;3135;42.602;23.468;2023-06-10T08:08:13;60778.75;;;-145.89;100.00
6204;BME280;3135;42.602;23.468;2023-06-10T08:10:39;60778.75;;;-145.89;100.00
6204;BME280;3135;42.602;23.468;2023-06-10T08:13:04;60778.75;;;-145.89;100.00
6204;BME280;3135;42.602;23.468;2023-06-10T08:15:30;60778.75;;;-145.89;100.00
6204;BME280;3135;42.602;23.468;2023-06-10T08:17:55;60778.75;;;-145.89;100.00
6204;BME280;3135;42.602;23.468;2023-06-10T08:20:22;60778.75;;;-145.89;100.00
6204;BME280;3135;42.602;23.468;2023-06-10T08:22:47;60778.75;;;-145.89;100.00
6204;BME280;3135;42.602;23.468;2023-06-10T08:25:13;60778.75;;;-145.89;100.00
6204;BME280;3135;42.602;23.468;2023-06-10T08:27:38;60778.75;;;-145.89;100.00
6204;BME280;3135;42.602;23.468;2023-06-10T08:30:04;60778.75;;;-145.89;100.00
6204;BME280;3135;42.602;23.468;2023-06-10T08:32:30;60778.75;;;-145.89;100.00
6204;BME280;3135;42.602;23.468;2023-06-10T08:34:55;60778.75;;;-145.89;100.00
6204;BME280;3135;42.602;23.468;2023-06-10T08:37:20;60778.75;;;-145.89;100.00
6204;BME280;3135;42.602;23.468;2023-06-10T08:39:46;60778.75;;;-145.89;100.00
6204;BME280;3135;42.602;23.468;2023-06-10T08:42:28;60778.75;;;-145.89;100.00
6204;BME280;3135;42.602;23.468;2023-06-10T08:44:57;60778.75;;;-145.89;100.00
6204;BME280;3135;42.602;23.468;2023-06-10T08:47:24;60778.75;;;-145.89;100.00
6204;BME280;3135;42.602;23.468;2023-06-10T08:49:50;60778.75;;;-145.89;100.00
6204;BME280;3135;42.602;23.468;2023-06-10T08:52:18;60778.75;;;-145.89;100.00
6204;BME280;3135;42.602;23.468;2023-06-10T08:54:52;60778.75;;;-145.89;100.00
6204;BME280;3135;42.602;23.468;2023-06-10T08:57:18;60778.75;;;-145.89;100.00
6204;BME280;3135;42.602;23.468;2023-06-10T08:59:46;60778.75;;;-145.89;100.00
6204;BME280;3135;42.602;23.468;2023-06-10T09:02:11;60778.75;;;-145.89;100.00
6204;BME280;3135;42.602;23.468;2023-06-10T09:04:39;60778.75;;;-145.89;100.00
6204;BME280;3135;42.602;23.468;2023-06-10T09:07:05;60778.75;;;-145.89;100.00
6204;BME280;3135;42.602;23.468;2023-06-10T09:09:32;60778.75;;;-145.89;100.00
6204;BME280;3135;42.602;23.468;2023-06-10T09:11:59;60778.75;;;-145.89;100.00
6204;BME280;3135;42.602;23.468;2023-06-10T09:14:25;60778.75;;;-145.89;100.00
6204;BME280;3135;42.602;23.468;2023-06-10T09:16:51;60778.75;;;-145.89;100.00
6204;BME280;3135;42.602;23.468;2023-06-10T09:19:17;60778.75;;;-145.89;100.00
6204;BME280;3135;42.602;23.468;2023-06-10T09:21:43;60778.75;;;-145.89;100.00
6204;BME280;3135;42.602;23.468;2023-06-10T09:24:09;60778.75;;;-145.89;100.00
6204;BME280;3135;42.602;23.468;2023-06-10T09:26:34;60778.75;;;-145.89;100.00
6204;BME280;3135;42.602;23.468;2023-06-10T09:29:04;60778.75;;;-145.89;100.00
6204;BME280;3135;42.602;23.468;2023-06-10T09:31:30;60778.75;;;-145.89;100.00
6204;BME280;3135;42.602;23.468;2023-06-10T09:34:05;60778.75;;;-145.89;100.00
6204;BME280;3135;42.602;23.468;2023-06-10T09:36:32;60778.75;;;-145.89;100.00
6204;BME280;3135;42.602;23.468;2023-06-10T09:38:58;60778.75;;;-145.89;100.00
6204;BME280;3135;42.602;23.468;2023-06-10T09:41:32;60778.75;;;-145.89;100.00
6204;BME280;3135;42.602;23.468;2023-06-10T09:43:58;60778.75;;;-145.89;100.00
6204;BME280;3135;42.602;23.468;2023-06-10T09:46:23;60778.75;;;-145.89;100.00
6204;BME280;3135;42.602;23.468;2023-06-10T09:48:49;60778.75;;;-145.89;100.00
6204;BME280;3135;42.602;23.468;2023-06-10T09:51:16;60778.75;;;-145.89;100.00
6204;BME280;3135;42.602;23.468;2023-06-10T09:53:49;60778.75;;;-145.89;100.00
6204;BME280;3135;42.602;23.468;2023-06-10T09:56:15;60778.75;;;-145.89;100.00
6204;BME280;3135;42.602;23.468;2023-06-10T09:58:41;60778.75;;;-145.89;100.00
6204;BME280;3135;42.602;23.468;2023-06-10T10:01:10;60778.75;;;-145.89;100.00
6204;BME280;3135;42.602;23.468;2023-06-10T10:03:46;60778.75;;;-145.89;100.00
6204;BME280;3135;42.602;23.468;2023-06-10T10:06:14;60778.75;;;-145.89;100.00
6204;BME280;3135;42.602;23.468;2023-06-10T10:08:40;60778.75;;;-145.89;100.00
6204;BME280;3135;42.602;23.468;2023-06-10T10:11:05;60778.75;;;-145.89;100.00
6204;BME280;3135;42.602;23.468;2023-06-10T10:13:33;60778.75;;;-145.89;100.00
6204;BME280;3135;42.602;23.468;2023-06-10T10:16:02;60778.75;;;-145.89;100.00
6204;BME280;3135;42.602;23.468;2023-06-10T10:18:29;60778.75;;;-145.89;100.00
6204;BME280;3135;42.602;23.468;2023-06-10T10:21:00;60778.75;;;-145.89;100.00
6204;BME280;3135;42.602;23.468;2023-06-10T10:23:40;60778.75;;;-145.89;100.00
6204;BME280;3135;42.602;23.468;2023-06-10T10:26:07;60778.75;;;-145.89;100.00
6204;BME280;3135;42.602;23.468;2023-06-10T10:28:45;60778.75;;;-145.89;100.00
6204;BME280;3135;42.602;23.468;2023-06-10T10:31:16;60778.75;;;-145.89;100.00
6204;BME280;3135;42.602;23.468;2023-06-10T10:34:00;60778.75;;;-145.89;100.00
6204;BME280;3135;42.602;23.468;2023-06-10T10:36:27;60778.75;;;-145.89;100.00
6204;BME280;3135;42.602;23.468;2023-06-10T10:38:53;60778.75;;;-145.89;100.00
6204;BME280;3135;42.602;23.468;2023-06-10T10:41:19;60778.75;;;-145.89;100.00
6204;BME280;3135;42.602;23.468;2023-06-10T10:43:46;60778.75;;;-145.89;100.00
6204;BME280;3135;42.602;23.468;2023-06-10T10:46:16;60778.75;;;-145.89;100.00
6204;BME280;3135;42.602;23.468;2023-06-10T10:48:43;60778.75;;;-145.89;100.00
6204;BME280;3135;42.602;23.468;2023-06-10T10:51:09;60778.75;;;-145.89;100.00
6204;BME280;3135;42.602;23.468;2023-06-10T10:53:38;60778.75;;;-145.89;100.00
6204;BME280;3135;42.602;23.468;2023-06-10T10:56:06;60778.75;;;-145.89;100.00
6204;BME280;3135;42.602;23.468;2023-06-10T10:58:32;60778.75;;;-145.89;100.00
6204;BME280;3135;42.602;23.468;2023-06-10T11:00:58;60778.75;;;-145.89;100.00
6204;BME280;3135;42.602;23.468;2023-06-10T11:03:28;60778.75;;;-145.89;100.00
6204;BME280;3135;42.602;23.468;2023-06-10T11:05:57;60778.75;;;-145.89;100.00
6204;BME280;3135;42.602;23.468;2023-06-10T11:10:54;60778.75;;;-145.89;100.00
6204;BME280;3135;42.602;23.468;2023-06-10T11:13:21;60778.75;;;-145.89;100.00
6204;BME280;3135;42.602;23.468;2023-06-10T11:15:48;60778.75;;;-145.89;100.00
6204;BME280;3135;42.602;23.468;2023-06-10T11:18:20;60778.75;;;-145.89;100.00
6204;BME280;3135;42.602;23.468;2023-06-10T11:31:26;60778.75;;;-145.89;100.00
6204;BME280;3135;42.602;23.468;2023-06-10T11:33:54;60778.75;;;-145.89;100.00
6204;BME280;3135;42.602;23.468;2023-06-10T11:36:21;60778.75;;;-145.89;100.00
6204;BME280;3135;42.602;23.468;2023-06-10T11:38:47;60778.75;;;-145.89;100.00
6204;BME280;3135;42.602;23.468;2023-06-10T11:41:14;60778.75;;;-145.89;100.00
6204;BME280;3135;42.602;23.468;2023-06-10T11:43:44;60778.75;;;-145.89;100.00
6204;BME280;3135;42.602;23.468;2023-06-10T11:46:11;60778.75;;;-145.89;100.00
6204;BME280;3135;42.602;23.468;2023-06-10T11:48:36;60778.75;;;-145.89;100.00
6204;BME280;3135;42.602;23.468;2023-06-10T11:51:08;60778.75;;;-145.89;100.00
6204;BME280;3135;42.602;23.468;2023-06-10T11:53:34;60778.75;;;-145.89;100.00
6204;BME280;3135;42.602;23.468;2023-06-10T11:56:00;60778.75;;;-145.89;100.00
6204;BME280;3135;42.602;23.468;2023-06-10T11:58:25;60778.75;;;-145.89;100.00
6204;BME280;3135;42.602;23.468;2023-06-10T12:00:52;60778.75;;;-145.89;100.00
6204;BME280;3135;42.602;23.468;2023-06-10T12:03:26;60778.75;;;-145.89;100.00
6204;BME280;3135;42.602;23.468;2023-06-10T12:06:00;60778.75;;;-145.89;100.00
6204;BME280;3135;42.602;23.468;2023-06-10T12:08:26;60778.75;;;-145.89;100.00
6204;BME280;3135;42.602;23.468;2023-06-10T12:10:52;60778.75;;;-145.89;100.00
6204;BME280;3135;42.602;23.468;2023-06-10T12:13:18;60778.75;;;-145.89;100.00
6204;BME280;3135;42.602;23.468;2023-06-10T12:15:44;60778.75;;;-145.89;100.00
6204;BME280;3135;42.602;23.468;2023-06-10T12:18:21;60778.75;;;-145.89;100.00
6204;BME280;3135;42.602;23.468;2023-06-10T12:20:46;60778.75;;;-145.89;100.00
6204;BME280;3135;42.602;23.468;2023-06-10T12:23:14;60778.75;;;-145.89;100.00
6204;BME280;3135;42.602;23.468;2023-06-10T12:25:57;60778.75;;;-145.89;100.00
6204;BME280;3135;42.602;23.468;2023-06-10T12:28:26;60778.75;;;-145.89;100.00
6204;BME280;3135;42.602;23.468;2023-06-10T12:30:52;60778.75;;;-145.89;100.00
6204;BME280;3135;42.602;23.468;2023-06-10T12:33:30;60778.75;;;-145.89;100.00
6204;BME280;3135;42.602;23.468;2023-06-10T12:35:56;60778.75;;;-145.89;100.00
6204;BME280;3135;42.602;23.468;2023-06-10T12:38:22;60778.75;;;-145.89;100.00
6204;BME280;3135;42.602;23.468;2023-06-10T12:40:50;60778.75;;;-145.89;100.00
6204;BME280;3135;42.602;23.468;2023-06-10T12:43:21;60778.75;;;-145.89;100.00
6204;BME280;3135;42.602;23.468;2023-06-10T12:45:47;60778.75;;;-145.89;100.00
6204;BME280;3135;42.602;23.468;2023-06-10T12:48:20;60778.75;;;-145.89;100.00
6204;BME280;3135;42.602;23.468;2023-06-10T12:50:57;60778.75;;;-145.89;100.00
6204;BME280;3135;42.602;23.468;2023-06-10T12:53:24;60778.75;;;-145.89;100.00
6204;BME280;3135;42.602;23.468;2023-06-10T12:55:50;60778.75;;;-145.89;100.00